Banner Elk, North Carolina
Current Conditions -  °F | °C
As of 11:15 AM on Thursday 30 Oct 2014 (Local Time) from KTNB Reporting Station
Clear Clear  
Wind Chill: 45°   Ceiling: Unl
Heat Index: 49°   Visibility: 10mi
Dew Point: 31°   Wind: 9mph
Humidity: 50%   Direction: 290°WNW
Pressure: 30.07"   Gusts: NA
Location:  36.16°N, 81.87°W
Report Text: KTNB 301515Z AUTO 29008KT 250V310 10SM CLR 09/M01 A3007 RMK AO2 T00931006
Loading
Personal Weather Stations






























Interactive Weather Map
Tropical Storm Tracking
New forecast layout! Learn more

10-Day Weather Forecast

Advertisements
Track Severe Weather on mobile